Flight Track Log - Related Links

Times and Time Zones

All times are in EDT time to prevent confusion due to time zone crossing. See the SWA149 flight status page for this flight to view local times or setup timezone preferences in your user account.

Time Position Orientation Groundspeed Altitude Reporting Facility
EDT Latitude Longitude Course Direction KTS MPH feet Rate Location/Type
Sun 09:53:09 PM 28.4167 -81.3000 147° Southeast 153 176 500  Level Orlando TRACON
Sun 09:54:40 PM 28.3500 -81.2500 147° Southeast 211 243 3,900 2,615 Climbing Orlando TRACON
Sun 09:55:45 PM 28.2833 -81.2000 147° Southeast 290 334 7,300 2,692 Climbing Orlando TRACON
Sun 09:57:16 PM 28.3758 -81.1467 27° Northeast 310 357 10,900 2,623 Climbing Jacksonville Center
Sun 09:58:16 PM 28.4681 -81.1758 344° North 328 377 13,900 2,800 Climbing Jacksonville Center
Sun 09:59:16 PM 28.5689 -81.2119 343° North 348 400 16,500 2,650 Climbing Jacksonville Center
Sun 10:00:16 PM 28.6717 -81.2481 343° North 372 428 19,200 2,500 Climbing Jacksonville Center
Sun 10:01:16 PM 28.7783 -81.2819 344° North 390 449 21,500 2,200 Climbing Jacksonville Center
Sun 10:02:16 PM 28.8894 -81.3203 343° North 401 461 23,600 1,900 Climbing Jacksonville Center
Sun 10:03:16 PM 29.0086 -81.3328 355° North 422 486 25,300 1,750 Climbing Jacksonville Center
Sun 10:04:16 PM 29.1339 -81.3283 North 442 509 27,100 1,750 Climbing Jacksonville Center
Sun 10:05:16 PM 29.2611 -81.3217 North 448 516 28,800 1,550 Climbing Jacksonville Center
Sun 10:06:16 PM 29.3947 -81.3169 North 463 533 30,200 1,400 Climbing Jacksonville Center
Sun 10:07:16 PM 29.5136 -81.3128 North 472 543 31,600 1,550 Climbing Jacksonville Center
Sun 10:08:16 PM 29.6469 -81.3083 North 477 549 33,300 1,600 Climbing Jacksonville Center
Sun 10:09:16 PM 29.7786 -81.3014 North 477 549 34,800 1,400 Climbing Jacksonville Center
Sun 10:10:16 PM 29.9142 -81.2967 North 477 549 36,100 1,100 Climbing Jacksonville Center
Sun 10:11:16 PM 30.0475 -81.2847 North 477 549 37,000 450 Climbing Jacksonville Center
Sun 10:12:16 PM 30.1764 -81.2369 18° North 477 549 37,000  Level Jacksonville Center
Sun 10:13:16 PM 30.3072 -81.1819 20° North 482 555 37,000  Level Jacksonville Center
Sun 10:14:16 PM 30.4339 -81.1267 21° North 482 555 37,000  Level Jacksonville Center
Sun 10:15:16 PM 30.5603 -81.0711 21° North 482 555 37,000  Level Jacksonville Center
Sun 10:16:16 PM 30.6911 -81.0181 19° North 487 560 37,000  Level Jacksonville Center
Sun 10:17:16 PM 30.8178 -80.9622 21° North 487 560 37,000  Level Jacksonville Center
Sun 10:18:16 PM 30.9442 -80.9064 21° North 487 560 37,000  Level Jacksonville Center
Sun 10:19:16 PM 31.0728 -80.8528 20° North 487 560 37,000  Level Jacksonville Center
Sun 10:20:16 PM 31.1972 -80.7989 20° North 487 560 37,000  Level Jacksonville Center
Sun 10:21:16 PM 31.3214 -80.7403 22° Northeast 487 560 37,000  Level Jacksonville Center
Sun 10:22:16 PM 31.4458 -80.6886 20° North 481 554 37,000  Level Jacksonville Center
Sun 10:23:16 PM 31.5722 -80.6297 22° Northeast 481 554 37,000  Level Jacksonville Center
Sun 10:24:16 PM 31.7131 -80.5700 20° North 481 554 37,000  Level Jacksonville Center
Sun 10:25:16 PM 31.8269 -80.5208 20° North 487 560 37,000  Level Jacksonville Center
Sun 10:26:16 PM 31.9656 -80.4558 22° Northeast 486 559 37,000  Level Jacksonville Center
Sun 10:27:16 PM 32.0897 -80.4011 20° North 491 565 37,000  Level Jacksonville Center
Sun 10:28:16 PM 32.2203 -80.3411 21° North 483 556 37,000  Level Jacksonville Center
Sun 10:29:16 PM 32.3464 -80.2861 20° North 483 556 37,000  Level Jacksonville Center
Sun 10:30:16 PM 32.4725 -80.2283 21° North 483 556 37,000  Level Jacksonville Center
Sun 10:31:16 PM 32.6008 -80.1728 20° North 483 556 37,000  Level Jacksonville Center
Sun 10:32:16 PM 32.7225 -80.1122 23° Northeast 483 556 37,000  Level Jacksonville Center
Sun 10:33:16 PM 32.8508 -80.0539 21° North 483 556 37,000  Level Jacksonville Center
Sun 10:34:16 PM 32.9722 -79.9758 28° Northeast 483 556 37,000  Level Jacksonville Center
Sun 10:35:16 PM 33.0914 -79.8950 30° Northeast 483 556 37,000  Level Jacksonville Center
Sun 10:36:16 PM 33.2061 -79.8092 32° Northeast 483 556 37,000  Level Jacksonville Center
Sun 10:37:16 PM 33.3208 -79.7258 31° Northeast 483 556 37,000  Level Jacksonville Center
Sun 10:38:16 PM 33.4356 -79.6419 31° Northeast 478 550 37,000  Level Jacksonville Center
Sun 10:39:16 PM 33.5483 -79.5581 32° Northeast 478 550 37,000  Level Jacksonville Center
Sun 10:40:16 PM 33.6628 -79.4739 31° Northeast 478 550 37,000  Level Jacksonville Center
Sun 10:41:16 PM 33.7733 -79.3947 31° Northeast 470 541 37,000  Level Jacksonville Center
Sun 10:42:16 PM 33.8836 -79.3128 32° Northeast 470 541 37,000  Level Jacksonville Center
Sun 10:43:16 PM 33.9981 -79.2281 32° Northeast 470 541 37,000  Level Jacksonville Center
Sun 10:44:16 PM 34.1144 -79.1403 32° Northeast 470 541 37,000  Level Jacksonville Center
Sun 10:45:16 PM 34.2289 -79.0575 31° Northeast 470 541 37,000  Level Jacksonville Center
Sun 10:47:01 PM 34.4133 -78.9200 32° Northeast 482 555 37,000  Level Washington Center
Sun 10:47:59 PM 34.5392 -78.8242 32° Northeast 487 560 37,000  Level Washington Center
Sun 10:49:00 PM 34.6436 -78.7375 34° Northeast 492 566 37,000  Level Washington Center
Sun 10:49:58 PM 34.7736 -78.6414 31° Northeast 492 566 37,000  Level Washington Center
Sun 10:51:00 PM 34.8736 -78.5617 33° Northeast 487 560 37,000  Level Washington Center
Sun 10:51:58 PM 34.9906 -78.4719 32° Northeast 487 560 37,000  Level Washington Center
Sun 10:52:58 PM 35.1031 -78.3847 32° Northeast 487 560 37,000  Level Washington Center
Sun 10:54:00 PM 35.2306 -78.2847 33° Northeast 492 566 37,000 200 Level Washington Center
Sun 10:54:58 PM 35.3475 -78.1944 32° Northeast 492 566 37,400 864 Climbing Washington Center
Sun 10:55:58 PM 35.4664 -78.1014 33° Northeast 492 566 38,700 793 Climbing Washington Center
Sun 10:56:59 PM 35.5828 -78.0106 32° Northeast 492 566 39,000 148 Climbing Washington Center
Sun 10:58:00 PM 35.6994 -77.9219 32° Northeast 492 566 39,000  Level Washington Center
Sun 10:58:58 PM 35.8139 -77.8333 32° Northeast 487 560 39,000  Level Washington Center
Sun 10:59:58 PM 35.9281 -77.7417 33° Northeast 487 560 39,000  Level Washington Center
Sun 11:00:59 PM 36.0425 -77.6469 34° Northeast 492 566 39,000  Level Washington Center
Sun 11:01:59 PM 36.1506 -77.5444 37° Northeast 492 566 39,000  Level Washington Center
Sun 11:02:59 PM 36.2417 -77.4592 37° Northeast 476 548 39,000  Level Washington Center
Sun 11:03:59 PM 36.3497 -77.3558 38° Northeast 471 542 39,000  Level Washington Center
Sun 11:05:00 PM 36.4594 -77.2550 36° Northeast 471 542 39,000  Level Washington Center
Sun 11:05:58 PM 36.5653 -77.1514 38° Northeast 477 549 39,000  Level Washington Center
Sun 11:06:59 PM 36.6750 -77.0500 37° Northeast 482 555 39,000  Level Washington Center
Sun 11:07:58 PM 36.7825 -76.9483 37° Northeast 482 555 39,000  Level Washington Center
Sun 11:08:59 PM 36.8942 -76.8464 36° Northeast 487 560 39,000  Level Washington Center
Sun 11:09:59 PM 37.0039 -76.7492 35° Northeast 487 560 39,000  Level Washington Center
Sun 11:11:00 PM 37.1111 -76.6492 37° Northeast 482 555 39,000  Level Washington Center
Sun 11:11:59 PM 37.2350 -76.5361 36° Northeast 482 555 39,000  Level Washington Center
Sun 11:12:58 PM 37.3483 -76.4436 33° Northeast 482 555 39,000  Level Washington Center
Sun 11:13:59 PM 37.4597 -76.3481 34° Northeast 482 555 39,000  Level Washington Center
Sun 11:14:59 PM 37.5708 -76.2519 34° Northeast 482 555 39,000  Level Washington Center
Sun 11:16:00 PM 37.6817 -76.1558 34° Northeast 482 555 39,000  Level Washington Center
Sun 11:16:58 PM 37.7947 -76.0569 35° Northeast 482 555 39,000  Level Washington Center
Sun 11:17:59 PM 37.9056 -75.9603 35° Northeast 493 567 39,000  Level Washington Center
Sun 11:18:59 PM 38.0186 -75.8606 35° Northeast 493 567 39,000  Level Washington Center
Sun 11:20:01 PM 38.1292 -75.7633 35° Northeast 493 567 39,000  Level Washington Center
Sun 11:20:59 PM 38.2439 -75.6631 34° Northeast 493 567 39,000  Level Washington Center
Sun 11:21:59 PM 38.3461 -75.5733 35° Northeast 493 567 39,000  Level Washington Center
Sun 11:22:59 PM 38.4586 -75.4750 34° Northeast 493 567 39,000  Level Washington Center
Sun 11:23:59 PM 38.5733 -75.3767 34° Northeast 493 567 39,000  Level Washington Center
Sun 11:25:00 PM 38.6836 -75.2753 36° Northeast 488 562 39,000 -50 Level Washington Center
Sun 11:26:00 PM 38.7978 -75.1733 35° Northeast 488 562 38,900 -559 Descending Washington Center
Sun 11:26:58 PM 38.9100 -75.0742 35° Northeast 488 562 37,900 -958 Descending Washington Center
Sun 11:27:59 PM 39.0222 -74.9692 36° Northeast 488 562 37,000 -446 Descending Washington Center
Sun 11:28:59 PM 39.1342 -74.8664 35° Northeast 488 562 37,000  Level Washington Center
Sun 11:30:54 PM 39.3594 -74.6617 35° Northeast 488 562 37,000  Level New York Center
Sun 11:32:03 PM 39.4906 -74.5369 36° Northeast 488 562 37,000 -92 Level New York Center
Sun 11:33:04 PM 39.5939 -74.4400 36° Northeast 499 574 36,800 -1,438 Descending New York Center
Sun 11:34:04 PM 39.7053 -74.3381 35° Northeast 499 574 34,100 -2,777 Descending New York Center
Sun 11:35:05 PM 39.8189 -74.2303 36° Northeast 499 574 31,200 -2,650 Descending New York Center
Sun 11:36:04 PM 39.9303 -74.1275 35° Northeast 494 568 28,800 -2,350 Descending New York Center
Sun 11:37:05 PM 40.0397 -74.0244 36° Northeast 494 568 26,500 -1,916 Descending New York Center
Sun 11:38:03 PM 40.1444 -73.9233 36° Northeast 483 556 25,000 -756 Descending New York Center
Sun 11:39:04 PM 40.2492 -73.8275 35° Northeast 472 543 25,000 -554 Level New York Center
Sun 11:41:07 PM 40.4750 -73.6050 37° Northeast 466 536 23,300 -820 Descending Boston Center
Sun 11:42:07 PM 40.5550 -73.5272 36° Northeast 461 531 22,500 -1,000 Descending Boston Center
Sun 11:43:07 PM 40.6747 -73.4142 36° Northeast 451 519 21,300 -1,350 Descending Boston Center
Sun 11:44:07 PM 40.7525 -73.3442 34° Northeast 440 506 19,800 -1,400 Descending Boston Center
Sun 11:45:07 PM 40.8556 -73.2331 39° Northeast 415 478 18,500 -1,150 Descending Boston Center
Sun 11:46:07 PM 40.9394 -73.1381 41° Northeast 401 461 17,500 -864 Descending Boston Center
Sun 11:47:19 PM 41.0233 -73.0369 42° Northeast 396 456 16,600 -1,000 Descending Boston Center
Sun 11:48:19 PM 41.1219 -72.9194 42° Northeast 391 450 15,300 -1,450 Descending Boston Center
Sun 11:49:19 PM 41.2036 -72.8264 41° Northeast 391 450 13,700 -1,850 Descending Boston Center
Sun 11:50:19 PM 41.2808 -72.7356 41° Northeast 380 437 11,600 -1,850 Descending Boston Center
Sun 11:51:19 PM 41.3706 -72.6944 19° North 352 405 10,000 -800 Descending Boston Center
Sun 11:52:19 PM 41.4728 -72.6950 360° North 347 399 10,000 -550 Level Boston Center
Sun 11:53:19 PM 41.5581 -72.6925 North 331 381 8,900 -1,250 Descending Boston Center
Sun 11:54:19 PM 41.6436 -72.6900 North 311 358 7,500 -1,350 Descending Boston Center
Sun 11:55:19 PM 41.7269 -72.6906 360° North 299 344 6,200 -1,250 Descending Boston Center
Sun 11:56:19 PM 41.8000 -72.6878 North 293 337 5,000 -563 Descending Boston Center
Sun 11:57:27 PM 41.8772 -72.6297 29° Northeast 268 308 5,000 -350 Level Boston Center
Sun 11:58:19 PM 41.9211 -72.5711 45° Northeast 249 287 4,300 -992 Descending Boston Center
Sun 11:59:28 PM 41.9731 -72.4958 47° Northeast 241 277 3,000 -650 Descending Boston Center
Mon 12:00:19 AM 42.0128 -72.4542 38° Northeast 222 255 3,000  Level Boston Center
Mon 12:01:19 AM 42.0522 -72.4906 326° Northwest 158 182 3,000 -250 Level Boston Center
Mon 12:02:19 AM 42.0397 -72.5519 255° West 144 166 2,500 -550 Descending Boston Center
Mon 12:03:19 AM 42.0128 -72.5911 227° Southwest 149 171 1,900 -636 Descending Boston Center
Mon 12:04:31 AM 41.9792 -72.6328 223° Southwest 132 152 1,100 -667 Descending Boston Center

Login

Don't have an account? Register now (free) for customized features, flight alerts, and more!